createdAt,value
2018-12-02T00:00:31.019Z,10.10
2018-12-02T00:03:00.105Z,10.10
2018-12-02T00:05:28.755Z,10.10
2018-12-02T00:07:57.208Z,10.10
2018-12-02T00:10:26.091Z,10.10
2018-12-02T00:12:54.464Z,10.00
2018-12-02T00:15:25.848Z,10.10
2018-12-02T00:17:55.401Z,10.00
2018-12-02T00:20:23.892Z,10.10
2018-12-02T00:22:52.288Z,10.10
2018-12-02T00:25:20.690Z,10.00
2018-12-02T00:28:03.824Z,10.00
2018-12-02T00:30:32.423Z,10.00
2018-12-02T00:33:00.827Z,10.00
2018-12-02T00:35:29.243Z,10.00
2018-12-02T00:37:59.819Z,10.00
2018-12-02T00:40:28.225Z,10.10
2018-12-02T00:42:57.559Z,10.10
2018-12-02T00:45:27.985Z,10.00
2018-12-02T00:47:56.383Z,10.10
2018-12-02T00:50:24.768Z,10.10
2018-12-02T00:52:54.252Z,10.10
2018-12-02T00:55:31.695Z,10.10
2018-12-02T00:58:00.159Z,10.00
2018-12-02T01:00:28.557Z,10.00
2018-12-02T01:02:56.970Z,10.00
2018-12-02T01:05:25.411Z,10.00
2018-12-02T01:07:53.888Z,9.90
2018-12-02T01:10:24.589Z,9.90
2018-12-02T01:12:55.548Z,9.90
2018-12-02T01:15:25.159Z,9.90
2018-12-02T01:17:53.638Z,9.90
2018-12-02T01:20:22.843Z,9.90
2018-12-02T01:22:51.251Z,9.90
2018-12-02T01:25:19.603Z,9.90
2018-12-02T01:27:47.983Z,9.90
2018-12-02T01:30:22.060Z,9.90
2018-12-02T01:32:51.481Z,9.90
2018-12-02T01:35:19.888Z,10.00
2018-12-02T01:37:48.330Z,10.00
2018-12-02T01:40:18.706Z,10.00
2018-12-02T01:42:47.172Z,10.00
2018-12-02T01:45:23.109Z,10.00
2018-12-02T01:47:51.880Z,10.00
2018-12-02T01:50:21.093Z,10.00
2018-12-02T01:52:50.532Z,10.00
2018-12-02T01:55:18.943Z,10.00
2018-12-02T01:57:47.296Z,10.00
2018-12-02T02:00:30.963Z,9.90
2018-12-02T02:02:59.361Z,9.90
2018-12-02T02:05:27.795Z,9.90
2018-12-02T02:07:56.187Z,9.90
2018-12-02T02:10:26.416Z,9.80
2018-12-02T02:12:55.104Z,9.80
2018-12-02T02:15:23.893Z,9.80
2018-12-02T02:17:52.261Z,9.80
2018-12-02T02:20:22.551Z,9.80
2018-12-02T02:22:50.988Z,9.80
2018-12-02T02:25:21.305Z,9.80
2018-12-02T02:27:51.052Z,9.80
2018-12-02T02:30:20.517Z,9.80
2018-12-02T02:32:48.925Z,9.80
2018-12-02T02:35:18.319Z,9.70
2018-12-02T02:37:46.759Z,9.80
2018-12-02T02:40:17.145Z,9.80
2018-12-02T02:42:45.579Z,9.80
2018-12-02T02:45:14.527Z,9.70
2018-12-02T02:47:42.936Z,9.80
2018-12-02T02:50:12.753Z,9.80
2018-12-02T02:52:41.776Z,9.80
2018-12-02T02:55:10.178Z,9.80
2018-12-02T02:57:38.555Z,9.80
2018-12-02T03:00:11.977Z,9.80
2018-12-02T03:02:40.666Z,9.80
2018-12-02T03:05:09.998Z,9.80
2018-12-02T03:07:38.379Z,9.80
2018-12-02T03:10:11.469Z,9.80
2018-12-02T03:12:39.880Z,9.80
2018-12-02T03:15:15.947Z,9.80
2018-12-02T03:17:44.477Z,9.80
2018-12-02T03:20:13.911Z,9.80
2018-12-02T03:22:44.376Z,9.80
2018-12-02T03:25:14.957Z,9.80
2018-12-02T03:27:43.375Z,9.80
2018-12-02T03:30:14.652Z,9.80
2018-12-02T03:32:43.080Z,9.80
2018-12-02T03:35:12.362Z,9.80
2018-12-02T03:37:40.788Z,9.80
2018-12-02T03:40:17.203Z,9.80
2018-12-02T03:42:45.697Z,9.90
2018-12-02T03:45:16.089Z,9.80
2018-12-02T03:47:45.213Z,9.90
2018-12-02T03:50:18.521Z,9.90
2018-12-02T03:52:47.078Z,9.90
2018-12-02T03:55:16.175Z,9.90
2018-12-02T03:57:44.559Z,9.90
2018-12-02T04:00:14.039Z,9.90
2018-12-02T04:02:42.428Z,9.90
2018-12-02T04:05:11.736Z,9.90
2018-12-02T04:07:40.164Z,9.90
2018-12-02T04:10:14.373Z,9.90
2018-12-02T04:12:42.845Z,9.90
2018-12-02T04:15:13.219Z,10.00
2018-12-02T04:17:41.897Z,9.90
2018-12-02T04:20:13.155Z,9.90
2018-12-02T04:22:41.596Z,9.90
2018-12-02T04:25:11.756Z,9.90
2018-12-02T04:27:40.160Z,9.90
2018-12-02T04:30:10.285Z,9.90
2018-12-02T04:32:38.657Z,9.90
2018-12-02T04:35:08.793Z,9.90
2018-12-02T04:37:37.231Z,10.00
2018-12-02T04:40:09.121Z,10.00
2018-12-02T04:42:37.534Z,10.00
2018-12-02T04:45:08.887Z,10.00
2018-12-02T04:47:37.324Z,10.00
2018-12-02T04:50:22.245Z,10.00
2018-12-02T04:52:50.633Z,10.00
2018-12-02T04:55:19.155Z,10.00
2018-12-02T04:57:47.554Z,10.00
2018-12-02T05:00:16.685Z,10.10
2018-12-02T05:02:46.191Z,10.00
2018-12-02T05:05:19.412Z,10.10
2018-12-02T05:07:47.780Z,10.00
2018-12-02T05:10:17.129Z,10.10
2018-12-02T05:12:45.562Z,10.00
2018-12-02T05:15:14.704Z,10.10
2018-12-02T05:17:43.087Z,10.10
2018-12-02T05:20:19.008Z,10.10
2018-12-02T05:22:47.422Z,10.10
2018-12-02T05:25:18.143Z,10.10
2018-12-02T05:27:44.889Z,10.10
2018-12-02T05:30:16.115Z,10.10
2018-12-02T05:32:45.827Z,10.10
2018-12-02T05:35:14.580Z,10.10
2018-12-02T05:37:43.014Z,10.10
2018-12-02T05:40:13.286Z,10.10
2018-12-02T05:42:41.783Z,10.10
2018-12-02T05:45:12.005Z,10.10
2018-12-02T05:47:40.405Z,10.10
2018-12-02T05:50:11.263Z,10.10
2018-12-02T05:52:39.627Z,10.10
2018-12-02T05:55:09.989Z,10.20
2018-12-02T05:57:38.376Z,10.20
2018-12-02T06:00:11.996Z,10.20
2018-12-02T06:02:40.418Z,10.20
2018-12-02T06:05:10.660Z,10.20
2018-12-02T06:07:39.155Z,10.30
2018-12-02T06:10:13.308Z,10.20
2018-12-02T06:12:41.776Z,10.30
2018-12-02T06:15:17.784Z,10.30
2018-12-02T06:17:46.324Z,10.30
2018-12-02T06:20:18.658Z,10.30
2018-12-02T06:22:47.367Z,10.30
2018-12-02T06:25:15.738Z,10.30
2018-12-02T06:27:44.320Z,10.30
2018-12-02T06:30:21.304Z,10.40
2018-12-02T06:32:53.708Z,10.40
2018-12-02T06:35:22.122Z,10.40
2018-12-02T06:37:51.237Z,10.40
2018-12-02T06:40:22.641Z,10.50
2018-12-02T06:42:51.161Z,10.50
2018-12-02T06:45:19.645Z,10.50
2018-12-02T06:47:48.083Z,10.50
2018-12-02T06:50:18.523Z,10.50
2018-12-02T06:52:46.934Z,10.60
2018-12-02T06:55:25.075Z,10.60
2018-12-02T06:57:56.228Z,10.60
2018-12-02T07:01:23.494Z,10.60
2018-12-02T07:04:00.258Z,10.70
2018-12-02T07:06:28.654Z,10.70
2018-12-02T07:08:57.060Z,10.70
2018-12-02T07:11:25.475Z,10.70
2018-12-02T07:13:54.569Z,10.70
2018-12-02T07:16:22.984Z,10.70
2018-12-02T07:18:54.027Z,10.70
2018-12-02T07:21:22.375Z,10.70
2018-12-02T07:23:52.020Z,10.70
2018-12-02T07:26:22.130Z,10.80
2018-12-02T07:28:50.490Z,10.80
2018-12-02T07:31:18.865Z,10.80
2018-12-02T07:33:47.416Z,10.80
2018-12-02T07:36:15.760Z,10.80
2018-12-02T07:38:46.876Z,10.80
2018-12-02T07:41:15.581Z,10.90
2018-12-02T07:43:43.947Z,10.90
2018-12-02T07:46:12.387Z,10.80
2018-12-02T07:48:41.141Z,10.80
2018-12-02T07:51:09.689Z,10.90
2018-12-02T07:53:38.110Z,10.90
2018-12-02T07:56:06.491Z,11.00
2018-12-02T07:58:34.871Z,11.00
2018-12-02T08:01:03.447Z,11.00
2018-12-02T08:03:31.889Z,11.00
2018-12-02T08:06:03.034Z,11.00
2018-12-02T08:08:31.513Z,11.00
2018-12-02T08:10:59.893Z,11.00
2018-12-02T08:13:28.238Z,11.10
2018-12-02T08:15:56.704Z,11.10
2018-12-02T08:18:25.110Z,11.10
2018-12-02T08:20:53.509Z,11.10
2018-12-02T08:23:21.888Z,11.10
2018-12-02T08:25:50.299Z,11.20
2018-12-02T08:28:18.816Z,11.20
2018-12-02T08:30:47.186Z,11.20
2018-12-02T08:33:15.562Z,11.30
2018-12-02T08:35:43.938Z,11.30
2018-12-02T08:38:13.220Z,11.30
2018-12-02T08:40:41.662Z,11.40
2018-12-02T08:43:10.038Z,11.40
2018-12-02T08:45:38.652Z,11.40
2018-12-02T08:48:07.090Z,11.50
2018-12-02T08:50:35.468Z,11.40
2018-12-02T08:53:04.489Z,11.50
2018-12-02T08:55:32.909Z,11.50
2018-12-02T08:58:01.268Z,11.60
2018-12-02T09:00:29.840Z,11.70
2018-12-02T09:03:01.665Z,11.70
2018-12-02T09:05:30.913Z,11.70
2018-12-02T09:07:59.837Z,11.80
2018-12-02T09:10:29.310Z,11.80
2018-12-02T09:12:59.143Z,11.80
2018-12-02T09:15:28.179Z,11.90
2018-12-02T09:17:56.630Z,11.90
2018-12-02T09:20:27.324Z,12.00
2018-12-02T09:22:56.458Z,12.00
2018-12-02T09:25:25.445Z,12.10
2018-12-02T09:27:53.837Z,12.10
2018-12-02T09:30:23.425Z,12.10
2018-12-02T09:32:52.068Z,12.10
2018-12-02T09:35:20.427Z,12.10
2018-12-02T09:37:48.872Z,12.20
2018-12-02T09:40:17.452Z,12.20
2018-12-02T09:42:48.983Z,12.20
2018-12-02T09:45:19.539Z,12.20
2018-12-02T09:47:48.950Z,12.30
2018-12-02T09:50:17.556Z,12.30
2018-12-02T09:52:46.619Z,12.30
2018-12-02T09:55:21.417Z,12.30
2018-12-02T09:57:50.195Z,12.30
2018-12-02T10:00:21.183Z,12.40
2018-12-02T10:02:49.660Z,12.40
2018-12-02T10:05:18.114Z,12.50
2018-12-02T10:07:46.502Z,12.50
2018-12-02T10:10:22.470Z,12.50
2018-12-02T10:12:50.500Z,12.50
2018-12-02T10:15:19.148Z,12.50
2018-12-02T10:17:47.560Z,12.50
2018-12-02T10:20:16.385Z,12.50
2018-12-02T10:22:45.712Z,12.60
2018-12-02T10:25:16.860Z,12.60
2018-12-02T10:27:45.373Z,12.60
2018-12-02T10:30:15.188Z,12.70
2018-12-02T10:32:44.275Z,12.70
2018-12-02T10:35:12.631Z,12.70
2018-12-02T10:37:41.044Z,12.70
2018-12-02T10:40:13.409Z,12.80
2018-12-02T10:42:41.883Z,12.70
2018-12-02T10:45:13.440Z,12.80
2018-12-02T10:47:43.130Z,12.80
2018-12-02T10:50:12.971Z,12.80
2018-12-02T10:52:41.489Z,12.90
2018-12-02T10:55:16.097Z,12.90
2018-12-02T10:57:44.456Z,12.90
2018-12-02T11:00:16.828Z,13.00
2018-12-02T11:02:46.693Z,13.00
2018-12-02T11:05:15.619Z,13.00
2018-12-02T11:07:44.115Z,13.10
2018-12-02T11:10:13.300Z,13.10
2018-12-02T11:12:41.695Z,13.10
2018-12-02T11:15:14.377Z,13.10
2018-12-02T11:17:43.586Z,13.10
2018-12-02T11:20:13.381Z,13.10
2018-12-02T11:22:41.815Z,13.10
2018-12-02T11:25:14.000Z,13.10
2018-12-02T11:27:42.435Z,13.00
2018-12-02T11:30:16.747Z,13.10
2018-12-02T11:32:46.099Z,13.10
2018-12-02T11:35:15.521Z,13.20
2018-12-02T11:37:44.671Z,13.10
2018-12-02T11:40:15.984Z,13.10
2018-12-02T11:42:44.332Z,13.10
2018-12-02T11:45:13.681Z,13.10
2018-12-02T11:47:43.106Z,13.10
2018-12-02T11:50:12.677Z,13.10
2018-12-02T11:52:41.236Z,13.20
2018-12-02T11:55:10.735Z,13.20
2018-12-02T11:57:39.300Z,13.20
2018-12-02T12:00:12.812Z,13.20
2018-12-02T12:02:41.236Z,13.20
2018-12-02T12:05:10.196Z,13.20
2018-12-02T12:07:39.077Z,13.20
2018-12-02T12:10:13.183Z,13.30
2018-12-02T12:12:41.644Z,13.30
2018-12-02T12:15:12.377Z,13.30
2018-12-02T12:17:40.768Z,13.30
2018-12-02T12:20:15.092Z,13.30
2018-12-02T12:22:44.240Z,13.30
2018-12-02T12:25:12.632Z,13.30
2018-12-02T12:27:41.205Z,13.30
2018-12-02T12:30:12.668Z,13.20
2018-12-02T12:32:41.073Z,13.30
2018-12-02T12:35:11.653Z,13.30
2018-12-02T12:37:40.165Z,13.30
2018-12-02T12:40:14.760Z,13.40
2018-12-02T12:42:44.732Z,13.30
2018-12-02T12:45:13.873Z,13.30
2018-12-02T12:47:43.443Z,13.30
2018-12-02T12:50:13.566Z,13.30
2018-12-02T12:52:41.920Z,13.30
2018-12-02T12:55:12.737Z,13.30
2018-12-02T12:57:42.217Z,13.20
2018-12-02T13:00:19.423Z,13.30
2018-12-02T13:02:47.872Z,13.30
2018-12-02T13:05:21.355Z,13.30
2018-12-02T13:07:49.933Z,13.30
2018-12-02T13:10:18.603Z,13.30
2018-12-02T13:12:46.983Z,13.20
2018-12-02T13:15:17.532Z,13.20
2018-12-02T13:18:04.414Z,13.20
2018-12-02T13:20:38.358Z,13.20
2018-12-02T13:23:07.335Z,13.20
2018-12-02T13:25:35.729Z,13.20
2018-12-02T13:28:04.209Z,13.20
2018-12-02T13:30:32.667Z,13.20
2018-12-02T13:33:01.056Z,13.20
2018-12-02T13:35:29.488Z,13.20
2018-12-02T13:37:57.919Z,13.20
2018-12-02T13:40:26.313Z,13.10
2018-12-02T13:43:01.000Z,13.20
2018-12-02T13:45:30.448Z,13.20
2018-12-02T13:47:58.852Z,13.10
2018-12-02T13:50:27.399Z,13.20
2018-12-02T13:52:56.650Z,13.20
2018-12-02T13:55:31.077Z,13.20
2018-12-02T13:58:00.375Z,13.20
2018-12-02T14:00:29.578Z,13.20
2018-12-02T14:03:13.017Z,13.20
2018-12-02T14:05:43.451Z,13.20
2018-12-02T14:08:11.889Z,13.20
2018-12-02T14:10:40.349Z,13.20
2018-12-02T14:13:10.676Z,13.20
2018-12-02T14:15:47.635Z,13.20
2018-12-02T14:18:22.968Z,13.20
2018-12-02T14:20:51.356Z,13.20
2018-12-02T14:23:20.724Z,13.20
2018-12-02T14:25:49.191Z,13.20
2018-12-02T14:28:20.883Z,13.20
2018-12-02T14:30:49.308Z,13.20
2018-12-02T14:33:17.712Z,13.20
2018-12-02T14:35:46.228Z,13.20
2018-12-02T14:38:14.633Z,13.20
2018-12-02T14:40:43.021Z,13.20
2018-12-02T14:43:11.436Z,13.20
2018-12-02T14:45:39.937Z,13.20
2018-12-02T14:48:08.403Z,13.20
2018-12-02T14:50:36.880Z,13.20
2018-12-02T14:53:05.335Z,13.20
2018-12-02T14:55:33.831Z,13.20
2018-12-02T14:58:02.268Z,13.20
2018-12-02T15:00:30.642Z,13.20
2018-12-02T15:02:59.107Z,13.20
2018-12-02T15:05:27.549Z,13.20
2018-12-02T15:07:55.921Z,13.20
2018-12-02T15:10:24.779Z,13.20
2018-12-02T15:12:52.778Z,13.20
2018-12-02T15:15:21.176Z,13.10
2018-12-02T15:17:49.558Z,13.10
2018-12-02T15:20:19.269Z,13.10
2018-12-02T15:22:47.786Z,13.10
2018-12-02T15:25:16.185Z,13.10
2018-12-02T15:27:45.256Z,13.10
2018-12-02T15:30:15.620Z,13.10
2018-12-02T15:32:47.513Z,13.10
2018-12-02T15:35:15.896Z,13.10
2018-12-02T15:37:44.944Z,13.10
2018-12-02T15:40:15.291Z,13.00
2018-12-02T15:42:45.539Z,13.00
2018-12-02T15:45:14.210Z,13.00
2018-12-02T15:47:42.644Z,13.00
2018-12-02T15:50:13.252Z,13.00
2018-12-02T15:52:41.740Z,13.00
2018-12-02T15:55:42.594Z,13.00
2018-12-02T15:58:12.659Z,13.00
2018-12-02T16:00:43.109Z,13.00
2018-12-02T16:03:11.525Z,13.10
2018-12-02T16:05:40.114Z,13.10
2018-12-02T16:08:08.832Z,13.00
2018-12-02T16:10:37.357Z,13.00
2018-12-02T16:13:07.770Z,13.00
2018-12-02T16:15:40.531Z,13.00
2018-12-02T16:18:10.536Z,13.00
2018-12-02T16:20:41.708Z,13.00
2018-12-02T16:23:10.144Z,13.00
2018-12-02T16:25:38.587Z,13.00
2018-12-02T16:28:07.009Z,13.10
2018-12-02T16:30:35.903Z,13.00
2018-12-02T16:33:04.289Z,13.00
2018-12-02T16:35:33.380Z,13.00
2018-12-02T16:38:01.852Z,13.00
2018-12-02T16:40:30.223Z,13.00
2018-12-02T16:42:58.770Z,13.00
2018-12-02T16:45:27.727Z,13.00
2018-12-02T16:47:57.467Z,13.00
2018-12-02T16:50:28.156Z,13.00
2018-12-02T16:53:01.906Z,13.00
2018-12-02T16:55:32.930Z,13.00
2018-12-02T16:58:08.436Z,13.00
2018-12-02T17:00:41.787Z,13.00
2018-12-02T17:03:11.129Z,13.00
2018-12-02T17:05:39.495Z,13.00
2018-12-02T17:08:07.868Z,13.00
2018-12-02T17:10:36.220Z,13.00
2018-12-02T17:13:04.878Z,13.00
2018-12-02T17:15:33.280Z,13.00
2018-12-02T17:18:01.675Z,13.00
2018-12-02T17:20:30.250Z,13.00
2018-12-02T17:22:58.611Z,12.90
2018-12-02T17:25:26.977Z,13.00
2018-12-02T17:27:55.444Z,13.00
2018-12-02T17:30:57.301Z,13.00
2018-12-02T17:33:25.756Z,13.00
2018-12-02T17:35:54.180Z,13.00
2018-12-02T17:38:24.647Z,13.00
2018-12-02T17:40:54.595Z,13.00
2018-12-02T17:43:23.014Z,13.00
2018-12-02T17:45:52.217Z,12.90
2018-12-02T17:48:20.624Z,13.00
2018-12-02T17:50:48.989Z,13.00
2018-12-02T17:53:17.366Z,12.90
2018-12-02T17:55:45.815Z,13.00
2018-12-02T17:58:14.271Z,13.00
2018-12-02T18:00:42.742Z,13.00
2018-12-02T18:03:13.885Z,13.00
2018-12-02T18:05:44.259Z,13.00
2018-12-02T18:08:12.724Z,13.00
2018-12-02T18:10:41.155Z,13.10
2018-12-02T18:13:09.536Z,13.00
2018-12-02T18:15:38.003Z,13.10
2018-12-02T18:18:07.309Z,13.10
2018-12-02T18:20:35.654Z,13.00
2018-12-02T18:23:04.104Z,13.10
2018-12-02T18:25:32.576Z,13.10
2018-12-02T18:28:01.104Z,13.10
2018-12-02T18:30:29.933Z,13.10
2018-12-02T18:33:00.936Z,13.10
2018-12-02T18:36:35.629Z,13.10
2018-12-02T18:39:06.660Z,13.10
2018-12-02T18:41:39.484Z,13.10
2018-12-02T18:44:10.934Z,13.00
2018-12-02T18:46:39.819Z,13.00
2018-12-02T18:49:08.212Z,13.00
2018-12-02T18:51:36.648Z,13.00
2018-12-02T18:54:05.748Z,13.00
2018-12-02T18:56:34.096Z,13.00
2018-12-02T18:59:02.466Z,12.90
2018-12-02T19:01:30.872Z,12.90
2018-12-02T19:03:59.372Z,12.90
2018-12-02T19:06:31.863Z,12.80
2018-12-02T19:09:00.249Z,12.80
2018-12-02T19:11:28.748Z,12.80
2018-12-02T19:13:57.152Z,12.80
2018-12-02T19:16:26.704Z,12.70
2018-12-02T19:18:55.140Z,12.70
2018-12-02T19:21:28.103Z,12.70
2018-12-02T19:23:57.891Z,12.80
2018-12-02T19:26:26.316Z,12.80
2018-12-02T19:28:54.983Z,12.70
2018-12-02T19:31:23.460Z,12.70
2018-12-02T19:33:53.789Z,12.80
2018-12-02T19:36:31.429Z,12.80
2018-12-02T19:39:00.460Z,12.70
2018-12-02T19:41:28.892Z,12.80
2018-12-02T19:43:57.554Z,12.80
2018-12-02T19:46:25.932Z,12.90
2018-12-02T19:48:54.357Z,12.80
2018-12-02T19:51:22.764Z,12.80
2018-12-02T19:53:51.144Z,12.90
2018-12-02T19:56:19.512Z,12.80
2018-12-02T19:58:48.009Z,12.80
2018-12-02T20:01:16.417Z,12.90
2018-12-02T20:03:44.839Z,12.90
2018-12-02T20:06:13.287Z,12.90
2018-12-02T20:08:41.711Z,12.90
2018-12-02T20:11:10.147Z,12.90
2018-12-02T20:13:38.576Z,13.00
2018-12-02T20:16:12.391Z,13.00
2018-12-02T20:18:40.839Z,13.00
2018-12-02T20:21:10.208Z,13.00
2018-12-02T20:23:44.044Z,13.00
2018-12-02T20:26:12.535Z,13.00
2018-12-02T20:28:49.024Z,13.00
2018-12-02T20:31:19.524Z,13.00
2018-12-02T20:33:47.932Z,13.00
2018-12-02T20:36:16.482Z,13.00
2018-12-02T20:38:44.902Z,12.90
2018-12-02T20:41:13.300Z,13.00
2018-12-02T20:43:41.691Z,12.90
2018-12-02T20:46:10.131Z,13.00
2018-12-02T20:48:38.555Z,12.90
2018-12-02T20:51:06.962Z,12.90
2018-12-02T20:53:35.333Z,12.90
2018-12-02T20:56:03.821Z,12.80
2018-12-02T20:58:32.247Z,12.80
2018-12-02T21:01:00.627Z,12.80
2018-12-02T21:03:32.152Z,12.80
2018-12-02T21:06:02.584Z,12.80
2018-12-02T21:08:30.989Z,12.80
2018-12-02T21:10:59.369Z,12.80
2018-12-02T21:13:27.803Z,12.80
2018-12-02T21:15:56.179Z,12.80
2018-12-02T21:18:24.573Z,12.80
2018-12-02T21:20:52.965Z,12.80
2018-12-02T21:23:23.132Z,12.70
2018-12-02T21:25:52.165Z,12.70
2018-12-02T21:28:22.395Z,12.80
2018-12-02T21:30:50.808Z,12.70
2018-12-02T21:33:19.211Z,12.80
2018-12-02T21:35:47.772Z,12.80
2018-12-02T21:38:16.341Z,12.80
2018-12-02T21:40:44.696Z,12.80
2018-12-02T21:43:13.183Z,12.80
2018-12-02T21:45:41.569Z,12.80
2018-12-02T21:48:12.152Z,12.80
2018-12-02T21:50:40.520Z,12.80
2018-12-02T21:53:08.942Z,12.80
2018-12-02T21:55:37.395Z,12.80
2018-12-02T21:58:06.277Z,12.80
2018-12-02T22:00:39.854Z,12.80
2018-12-02T22:03:08.247Z,12.80
2018-12-02T22:05:36.602Z,12.80
2018-12-02T22:08:05.619Z,12.80
2018-12-02T22:10:34.039Z,12.80
2018-12-02T22:13:02.539Z,12.80
2018-12-02T22:15:30.927Z,12.80
2018-12-02T22:17:59.283Z,12.80
2018-12-02T22:20:27.703Z,12.90
2018-12-02T22:22:56.108Z,12.80
2018-12-02T22:25:24.687Z,12.80
2018-12-02T22:27:54.980Z,12.80
2018-12-02T22:30:24.253Z,12.80
2018-12-02T22:32:52.665Z,12.80
2018-12-02T22:35:22.020Z,12.90
2018-12-02T22:37:50.410Z,12.80
2018-12-02T22:40:21.058Z,12.90
2018-12-02T22:42:49.536Z,12.90
2018-12-02T22:45:22.995Z,12.80
2018-12-02T22:47:51.550Z,12.80
2018-12-02T22:50:20.810Z,12.80
2018-12-02T22:52:51.322Z,12.80
2018-12-02T22:55:19.864Z,12.80
2018-12-02T22:57:49.143Z,12.80
2018-12-02T23:00:25.712Z,12.80
2018-12-02T23:02:59.603Z,12.80
2018-12-02T23:05:28.009Z,12.80
2018-12-02T23:07:56.375Z,12.80
2018-12-02T23:10:24.804Z,12.90
2018-12-02T23:12:54.458Z,12.80
2018-12-02T23:15:21.624Z,12.90
2018-12-02T23:17:50.180Z,12.80
2018-12-02T23:20:18.529Z,12.90
2018-12-02T23:22:46.913Z,12.90
2018-12-02T23:25:15.836Z,12.90
2018-12-02T23:27:44.359Z,13.00
2018-12-02T23:30:13.857Z,13.00
2018-12-02T23:32:42.244Z,13.00
2018-12-02T23:35:10.684Z,13.00
2018-12-02T23:37:39.041Z,13.00
2018-12-02T23:40:15.052Z,12.90
2018-12-02T23:42:43.428Z,13.00
2018-12-02T23:45:12.776Z,13.00
2018-12-02T23:47:41.228Z,13.00
2018-12-02T23:50:12.052Z,13.00
2018-12-02T23:52:40.496Z,13.00
2018-12-02T23:55:10.916Z,13.00
2018-12-02T23:57:39.360Z,13.00
